Time;durP1;ratioP1;P1;durP2;ratioP2;P2;SDS_P1;SDS_P2;PMS_P1;PMS_P2;Temp;Humidity;BMP_temperature;BMP_pressure;BME280_temperature;BME280_humidity;BME280_pressure;Samples;Min_cycle;Max_cycle;Signal;HPM_P1;HPM_P2
2021/10/04 15:51:57;;;;;;;;;;;12.20;62.30;;;;;;5071771;28;19921;-93
2021/10/04 15:54:23;;;;;;;;;;;11.90;64.10;;;;;;5053437;28;20431;-93
2021/10/04 15:56:48;;;;;;;;;;;11.90;65.70;;;;;;5053491;28;19959;-91
2021/10/04 15:59:14;;;;;;;;;;;11.90;66.80;;;;;;5040151;28;19917;-93
2021/10/04 16:01:40;;;;;;;;;;;12.00;67.70;;;;;;5034342;28;20388;-91
2021/10/04 16:04:06;;;;;;;;;;;12.00;68.30;;;;;;5041441;28;20284;-94
2021/10/04 16:06:32;;;;;;;;;;;12.00;68.70;;;;;;5044561;28;19955;-95
2021/10/04 16:08:57;;;;;;;;;;;12.10;69.20;;;;;;5067093;28;20377;-94
2021/10/04 16:11:23;;;;;;;;;;;12.10;69.50;;;;;;5050935;28;19998;-96
2021/10/04 16:13:50;;;;;;;;;;;12.10;69.70;;;;;;5051793;28;20018;-96
2021/10/04 16:16:26;;;;;;;;;;;12.20;70.00;;;;;;5069514;28;19919;-94
2021/10/04 16:18:52;;;;;;;;;;;12.20;70.10;;;;;;5062644;28;19913;-95
2021/10/04 16:21:22;;;;;;;;;;;12.30;70.20;;;;;;5045782;28;20019;-96
2021/10/04 16:23:47;;;;;;;;;;;12.30;70.30;;;;;;5057694;23;19926;-94
2021/10/04 16:26:15;;;;;;;;;;;12.30;70.40;;;;;;5013662;28;19916;-94
2021/10/04 16:28:41;;;;;;;;;;;12.30;70.60;;;;;;4996902;28;19945;-92
2021/10/04 16:31:08;;;;;;;;;;;12.30;70.70;;;;;;5018847;28;19925;-96
2021/10/04 16:42:12;;;;;;;;;;;12.40;72.10;;;;;;5469069;23;19925;-96
2021/10/04 16:44:40;;;;;;;;;;;12.50;72.00;;;;;;5021414;28;19913;-96
2021/10/04 17:07:35;;;;;;;;;;;12.50;71.10;;;;;;5650049;22;19926;-94
2021/10/04 17:10:01;;;;;;;;;;;12.50;71.10;;;;;;5023087;28;20285;-94
2021/10/04 17:12:26;;;;;;;;;;;12.50;71.20;;;;;;5005174;28;19913;-95
2021/10/04 17:14:58;;;;;;;;;;;12.50;71.40;;;;;;5012225;28;19921;-95
2021/10/04 17:17:24;;;;;;;;;;;12.50;71.40;;;;;;5006918;28;20354;-92
2021/10/04 17:19:50;;;;;;;;;;;12.50;71.20;;;;;;5008853;28;19956;-93
2021/10/04 17:22:16;;;;;;;;;;;12.50;71.00;;;;;;5015680;28;19917;-95
2021/10/04 17:24:42;;;;;;;;;;;12.50;70.90;;;;;;5023115;28;19920;-95
2021/10/04 17:27:07;;;;;;;;;;;12.60;71.00;;;;;;5016082;28;19917;-96
2021/10/04 17:29:38;;;;;;;;;;;12.50;71.60;;;;;;5007652;28;19913;-96
2021/10/04 17:32:05;;;;;;;;;;;12.60;71.90;;;;;;5022050;28;20424;-95
2021/10/04 17:34:32;;;;;;;;;;;12.60;72.00;;;;;;5016672;28;19921;-95
2021/10/04 17:37:05;;;;;;;;;;;12.50;72.00;;;;;;5036328;28;20003;-96
2021/10/04 17:39:31;;;;;;;;;;;12.50;71.60;;;;;;5014672;28;19914;-95
2021/10/04 17:41:56;;;;;;;;;;;12.60;71.50;;;;;;5013474;28;20286;-93
2021/10/04 17:44:22;;;;;;;;;;;12.50;71.50;;;;;;5033856;28;19944;-95
2021/10/04 17:46:50;;;;;;;;;;;12.50;71.60;;;;;;5037114;28;19930;-96
2021/10/04 17:49:18;;;;;;;;;;;12.50;71.60;;;;;;5004125;28;20282;-94
2021/10/04 17:51:44;;;;;;;;;;;12.50;71.60;;;;;;5004146;28;19913;-93
2021/10/04 17:54:12;;;;;;;;;;;12.50;71.60;;;;;;5016260;28;19913;-96
2021/10/04 17:56:38;;;;;;;;;;;12.40;71.80;;;;;;5008960;28;19960;-94
2021/10/04 17:59:04;;;;;;;;;;;12.40;72.00;;;;;;5012823;28;19913;-94
2021/10/04 18:01:46;;;;;;;;;;;12.40;72.30;;;;;;5006507;28;19917;-96
2021/10/04 18:04:12;;;;;;;;;;;12.30;72.40;;;;;;5152399;23;19925;-94
2021/10/04 18:06:38;;;;;;;;;;;12.30;73.00;;;;;;5046445;28;19920;-91
2021/10/04 18:09:03;;;;;;;;;;;12.20;73.20;;;;;;5025394;28;19997;-95
2021/10/04 18:11:29;;;;;;;;;;;12.20;73.80;;;;;;5026589;28;19917;-93
2021/10/04 18:13:55;;;;;;;;;;;12.20;74.20;;;;;;5031325;28;19913;-93
2021/10/04 18:16:23;;;;;;;;;;;12.20;74.80;;;;;;5029303;28;19912;-94
2021/10/04 18:18:55;;;;;;;;;;;12.10;75.50;;;;;;5032591;28;19924;-93
2021/10/04 18:21:22;;;;;;;;;;;12.10;76.00;;;;;;5049594;28;19940;-93
2021/10/04 18:26:31;;;;;;;;;;;12.10;76.70;;;;;;5153703;23;19926;-95
2021/10/04 18:28:57;;;;;;;;;;;12.10;77.50;;;;;;4992183;28;19956;-95
2021/10/04 18:31:24;;;;;;;;;;;12.10;77.60;;;;;;4979800;28;19914;-93
2021/10/04 18:33:50;;;;;;;;;;;12.10;77.60;;;;;;4981711;28;19909;-92
2021/10/04 18:36:15;;;;;;;;;;;12.00;78.20;;;;;;4980090;28;19956;-94
2021/10/04 18:53:19;;;;;;;;;;;11.30;81.90;;;;;;5073348;28;19921;-95
2021/10/04 18:55:48;;;;;;;;;;;11.20;83.20;;;;;;5056592;28;19963;-96
2021/10/04 18:58:13;;;;;;;;;;;11.20;83.70;;;;;;5055148;28;19913;-95
2021/10/04 19:00:40;;;;;;;;;;;11.20;84.50;;;;;;5073319;28;19974;-96
2021/10/04 19:03:06;;;;;;;;;;;11.20;84.80;;;;;;5079411;28;20417;-96
2021/10/04 19:05:32;;;;;;;;;;;11.20;85.60;;;;;;5055818;28;19997;-96
2021/10/04 19:07:58;;;;;;;;;;;11.30;85.60;;;;;;5056090;28;19915;-96
2021/10/04 19:10:24;;;;;;;;;;;11.30;85.40;;;;;;5056409;28;19908;-96
2021/10/04 19:12:49;;;;;;;;;;;11.40;85.50;;;;;;5060527;28;19923;-96
2021/10/04 19:15:15;;;;;;;;;;;11.40;85.60;;;;;;5062024;28;19913;-96
2021/10/04 19:17:41;;;;;;;;;;;11.50;85.90;;;;;;5060858;28;19952;-96
